sensor_id;sensor_type;location;lat;lon;timestamp;temperature;humidity
1049;DHT22;513;51.444;7.196;2023-03-21T00:00:22;9.60;45.10
1049;DHT22;513;51.444;7.196;2023-03-21T00:02:49;9.60;34.20
1049;DHT22;513;51.444;7.196;2023-03-21T00:05:16;9.60;38.30
1049;DHT22;513;51.444;7.196;2023-03-21T00:07:45;9.50;30.10
1049;DHT22;513;51.444;7.196;2023-03-21T00:10:11;9.60;26.80
1049;DHT22;513;51.444;7.196;2023-03-21T00:12:38;9.60;24.90
1049;DHT22;513;51.444;7.196;2023-03-21T00:15:08;9.60;16.00
1049;DHT22;513;51.444;7.196;2023-03-21T00:17:35;9.60;20.60
1049;DHT22;513;51.444;7.196;2023-03-21T00:20:06;9.70;8.20
1049;DHT22;513;51.444;7.196;2023-03-21T00:22:39;9.70;1.00
1049;DHT22;513;51.444;7.196;2023-03-21T00:25:07;9.70;1.00
1049;DHT22;513;51.444;7.196;2023-03-21T00:27:35;9.70;1.00
1049;DHT22;513;51.444;7.196;2023-03-21T00:30:03;9.80;1.00
1049;DHT22;513;51.444;7.196;2023-03-21T00:32:31;9.80;1.00
1049;DHT22;513;51.444;7.196;2023-03-21T00:34:58;9.90;1.00
1049;DHT22;513;51.444;7.196;2023-03-21T00:37:25;9.80;1.00
1049;DHT22;513;51.444;7.196;2023-03-21T00:39:52;9.80;1.00
1049;DHT22;513;51.444;7.196;2023-03-21T00:42:19;9.60;1.00
1049;DHT22;513;51.444;7.196;2023-03-21T00:44:46;9.70;1.00
1049;DHT22;513;51.444;7.196;2023-03-21T00:47:13;9.60;1.00
1049;DHT22;513;51.444;7.196;2023-03-21T00:49:41;9.70;1.00
1049;DHT22;513;51.444;7.196;2023-03-21T00:52:08;9.70;1.00
1049;DHT22;513;51.444;7.196;2023-03-21T00:54:36;9.80;1.00
1049;DHT22;513;51.444;7.196;2023-03-21T00:57:03;9.80;1.00
1049;DHT22;513;51.444;7.196;2023-03-21T00:59:30;9.60;1.00
1049;DHT22;513;51.444;7.196;2023-03-21T01:01:57;9.70;1.00
1049;DHT22;513;51.444;7.196;2023-03-21T01:04:25;9.80;1.00
1049;DHT22;513;51.444;7.196;2023-03-21T01:06:54;9.90;1.00
1049;DHT22;513;51.444;7.196;2023-03-21T01:09:22;9.90;1.00
1049;DHT22;513;51.444;7.196;2023-03-21T01:11:49;9.90;1.00
1049;DHT22;513;51.444;7.196;2023-03-21T01:14:18;9.80;1.00
1049;DHT22;513;51.444;7.196;2023-03-21T01:16:45;9.90;1.00
1049;DHT22;513;51.444;7.196;2023-03-21T01:19:13;9.80;1.00
1049;DHT22;513;51.444;7.196;2023-03-21T01:21:41;9.90;1.00
1049;DHT22;513;51.444;7.196;2023-03-21T01:24:09;9.90;1.00
1049;DHT22;513;51.444;7.196;2023-03-21T01:26:36;10.00;1.00
1049;DHT22;513;51.444;7.196;2023-03-21T01:29:03;10.00;1.00
1049;DHT22;513;51.444;7.196;2023-03-21T01:31:30;10.10;1.00
1049;DHT22;513;51.444;7.196;2023-03-21T01:33:57;10.10;1.00
1049;DHT22;513;51.444;7.196;2023-03-21T01:36:25;10.10;1.00
1049;DHT22;513;51.444;7.196;2023-03-21T01:38:53;10.10;1.00
1049;DHT22;513;51.444;7.196;2023-03-21T01:41:25;10.10;1.00
1049;DHT22;513;51.444;7.196;2023-03-21T01:43:52;10.10;1.00
1049;DHT22;513;51.444;7.196;2023-03-21T01:46:34;10.20;1.00
1049;DHT22;513;51.444;7.196;2023-03-21T01:49:05;10.00;1.00
1049;DHT22;513;51.444;7.196;2023-03-21T01:51:35;10.00;1.00
1049;DHT22;513;51.444;7.196;2023-03-21T01:54:03;10.00;1.90
1049;DHT22;513;51.444;7.196;2023-03-21T01:56:34;9.90;13.90
1049;DHT22;513;51.444;7.196;2023-03-21T01:59:05;9.90;11.80
1049;DHT22;513;51.444;7.196;2023-03-21T02:01:33;9.90;10.40
1049;DHT22;513;51.444;7.196;2023-03-21T02:04:03;9.90;11.90
1049;DHT22;513;51.444;7.196;2023-03-21T02:06:37;9.80;19.20
1049;DHT22;513;51.444;7.196;2023-03-21T02:09:08;9.80;22.00
1049;DHT22;513;51.444;7.196;2023-03-21T02:11:38;9.60;47.80
1049;DHT22;513;51.444;7.196;2023-03-21T02:14:05;9.50;67.80
1049;DHT22;513;51.444;7.196;2023-03-21T02:16:42;9.60;73.80
1049;DHT22;513;51.444;7.196;2023-03-21T02:19:42;9.40;88.20
1049;DHT22;513;51.444;7.196;2023-03-21T02:22:30;9.40;90.00
1049;DHT22;513;51.444;7.196;2023-03-21T02:25:25;9.50;91.20
1049;DHT22;513;51.444;7.196;2023-03-21T02:28:03;9.50;89.70
1049;DHT22;513;51.444;7.196;2023-03-21T02:33:53;9.40;92.60
1049;DHT22;513;51.444;7.196;2023-03-21T02:36:27;9.40;93.10
1049;DHT22;513;51.444;7.196;2023-03-21T02:39:07;9.50;89.60
1049;DHT22;513;51.444;7.196;2023-03-21T02:41:45;9.50;91.90
1049;DHT22;513;51.444;7.196;2023-03-21T02:44:18;9.60;83.00
1049;DHT22;513;51.444;7.196;2023-03-21T02:46:50;9.60;75.80
1049;DHT22;513;51.444;7.196;2023-03-21T02:49:22;9.70;74.30
1049;DHT22;513;51.444;7.196;2023-03-21T02:51:50;9.70;75.30
1049;DHT22;513;51.444;7.196;2023-03-21T02:54:21;9.50;93.00
1049;DHT22;513;51.444;7.196;2023-03-21T02:56:49;9.50;95.50
1049;DHT22;513;51.444;7.196;2023-03-21T02:59:18;9.60;96.80
1049;DHT22;513;51.444;7.196;2023-03-21T03:01:48;9.50;99.90
1049;DHT22;513;51.444;7.196;2023-03-21T03:04:19;9.40;99.90
1049;DHT22;513;51.444;7.196;2023-03-21T03:07:06;9.60;99.90
1049;DHT22;513;51.444;7.196;2023-03-21T03:09:46;9.60;99.90
1049;DHT22;513;51.444;7.196;2023-03-21T03:12:25;9.50;99.90
1049;DHT22;513;51.444;7.196;2023-03-21T03:15:00;10.10;99.90
1049;DHT22;513;51.444;7.196;2023-03-21T03:17:37;9.60;99.90
1049;DHT22;513;51.444;7.196;2023-03-21T03:20:18;9.30;99.90
1049;DHT22;513;51.444;7.196;2023-03-21T03:22:52;9.40;99.90
1049;DHT22;513;51.444;7.196;2023-03-21T03:25:25;9.40;99.90
1049;DHT22;513;51.444;7.196;2023-03-21T03:27:55;9.30;99.90
1049;DHT22;513;51.444;7.196;2023-03-21T03:30:24;9.30;99.90
1049;DHT22;513;51.444;7.196;2023-03-21T03:32:54;9.30;99.90
1049;DHT22;513;51.444;7.196;2023-03-21T03:35:23;9.00;99.90
1049;DHT22;513;51.444;7.196;2023-03-21T03:37:54;9.10;99.90
1049;DHT22;513;51.444;7.196;2023-03-21T03:40:25;9.20;99.90
1049;DHT22;513;51.444;7.196;2023-03-21T03:42:57;9.10;99.90
1049;DHT22;513;51.444;7.196;2023-03-21T03:45:29;9.10;99.90
1049;DHT22;513;51.444;7.196;2023-03-21T03:48:03;9.10;99.90
1049;DHT22;513;51.444;7.196;2023-03-21T03:50:35;9.10;99.90
1049;DHT22;513;51.444;7.196;2023-03-21T03:53:06;9.10;99.90
1049;DHT22;513;51.444;7.196;2023-03-21T03:55:35;9.10;99.90
1049;DHT22;513;51.444;7.196;2023-03-21T03:58:03;9.00;99.90
1049;DHT22;513;51.444;7.196;2023-03-21T04:00:31;9.10;99.90
1049;DHT22;513;51.444;7.196;2023-03-21T04:02:59;9.20;99.90
1049;DHT22;513;51.444;7.196;2023-03-21T04:05:26;9.10;99.90
1049;DHT22;513;51.444;7.196;2023-03-21T04:07:52;9.10;99.90
1049;DHT22;513;51.444;7.196;2023-03-21T04:10:19;9.00;99.90
1049;DHT22;513;51.444;7.196;2023-03-21T04:12:48;9.10;99.90
1049;DHT22;513;51.444;7.196;2023-03-21T04:15:15;9.10;99.90
1049;DHT22;513;51.444;7.196;2023-03-21T04:17:44;9.00;99.90
1049;DHT22;513;51.444;7.196;2023-03-21T04:20:11;9.10;99.90
1049;DHT22;513;51.444;7.196;2023-03-21T04:22:38;9.00;99.90
1049;DHT22;513;51.444;7.196;2023-03-21T04:25:06;9.00;99.90
1049;DHT22;513;51.444;7.196;2023-03-21T04:27:33;8.90;99.90
1049;DHT22;513;51.444;7.196;2023-03-21T04:30:01;8.90;99.90
1049;DHT22;513;51.444;7.196;2023-03-21T04:32:28;8.90;99.90
1049;DHT22;513;51.444;7.196;2023-03-21T04:34:58;8.90;99.90
1049;DHT22;513;51.444;7.196;2023-03-21T04:37:25;8.90;99.90
1049;DHT22;513;51.444;7.196;2023-03-21T04:39:52;8.90;99.90
1049;DHT22;513;51.444;7.196;2023-03-21T04:42:19;8.90;99.90
1049;DHT22;513;51.444;7.196;2023-03-21T04:44:46;8.90;99.90
1049;DHT22;513;51.444;7.196;2023-03-21T04:47:15;9.00;99.90
1049;DHT22;513;51.444;7.196;2023-03-21T04:49:44;9.10;99.90
1049;DHT22;513;51.444;7.196;2023-03-21T04:52:12;9.00;99.90
1049;DHT22;513;51.444;7.196;2023-03-21T04:54:39;8.90;99.90
1049;DHT22;513;51.444;7.196;2023-03-21T04:57:05;9.00;99.90
1049;DHT22;513;51.444;7.196;2023-03-21T04:59:32;9.00;99.90
1049;DHT22;513;51.444;7.196;2023-03-21T05:01:59;9.10;99.90
1049;DHT22;513;51.444;7.196;2023-03-21T05:04:28;9.00;99.90
1049;DHT22;513;51.444;7.196;2023-03-21T05:06:55;9.10;99.90
1049;DHT22;513;51.444;7.196;2023-03-21T05:09:22;9.10;99.90
1049;DHT22;513;51.444;7.196;2023-03-21T05:11:49;9.10;99.90
1049;DHT22;513;51.444;7.196;2023-03-21T05:14:18;9.10;99.90
1049;DHT22;513;51.444;7.196;2023-03-21T05:16:45;9.20;99.90
1049;DHT22;513;51.444;7.196;2023-03-21T05:19:17;9.20;99.90
1049;DHT22;513;51.444;7.196;2023-03-21T05:21:46;9.20;99.90
1049;DHT22;513;51.444;7.196;2023-03-21T05:24:14;9.30;99.90
1049;DHT22;513;51.444;7.196;2023-03-21T05:26:42;9.50;99.90
1049;DHT22;513;51.444;7.196;2023-03-21T05:29:15;9.40;99.90
1049;DHT22;513;51.444;7.196;2023-03-21T05:31:42;9.60;99.90
1049;DHT22;513;51.444;7.196;2023-03-21T05:34:09;9.50;98.10
1049;DHT22;513;51.444;7.196;2023-03-21T05:36:36;9.30;97.80
1049;DHT22;513;51.444;7.196;2023-03-21T05:39:05;9.20;99.90
1049;DHT22;513;51.444;7.196;2023-03-21T05:41:32;9.40;99.90
1049;DHT22;513;51.444;7.196;2023-03-21T05:43:59;9.50;99.90
1049;DHT22;513;51.444;7.196;2023-03-21T05:46:26;9.30;99.90
1049;DHT22;513;51.444;7.196;2023-03-21T05:48:52;9.40;99.90
1049;DHT22;513;51.444;7.196;2023-03-21T05:51:19;9.50;99.90
1049;DHT22;513;51.444;7.196;2023-03-21T05:53:46;9.50;93.30
1049;DHT22;513;51.444;7.196;2023-03-21T05:56:15;9.50;92.60
1049;DHT22;513;51.444;7.196;2023-03-21T05:58:41;9.40;96.20
1049;DHT22;513;51.444;7.196;2023-03-21T06:01:08;9.40;99.90
1049;DHT22;513;51.444;7.196;2023-03-21T06:03:35;9.40;99.90
1049;DHT22;513;51.444;7.196;2023-03-21T06:06:02;9.40;99.90
1049;DHT22;513;51.444;7.196;2023-03-21T06:08:29;9.50;99.90
1049;DHT22;513;51.444;7.196;2023-03-21T06:10:56;9.60;99.90
1049;DHT22;513;51.444;7.196;2023-03-21T06:13:24;9.60;99.90
1049;DHT22;513;51.444;7.196;2023-03-21T06:15:50;9.70;99.90
1049;DHT22;513;51.444;7.196;2023-03-21T06:18:17;9.60;99.90
1049;DHT22;513;51.444;7.196;2023-03-21T06:20:44;9.60;99.90
1049;DHT22;513;51.444;7.196;2023-03-21T06:23:10;9.60;99.90
1049;DHT22;513;51.444;7.196;2023-03-21T06:25:37;9.60;99.90
1049;DHT22;513;51.444;7.196;2023-03-21T06:28:04;9.60;99.90
1049;DHT22;513;51.444;7.196;2023-03-21T06:30:32;9.60;99.90
1049;DHT22;513;51.444;7.196;2023-03-21T06:32:58;9.50;99.90
1049;DHT22;513;51.444;7.196;2023-03-21T06:35:25;9.60;99.90
1049;DHT22;513;51.444;7.196;2023-03-21T06:37:52;9.50;99.90
1049;DHT22;513;51.444;7.196;2023-03-21T06:40:19;9.50;99.90
1049;DHT22;513;51.444;7.196;2023-03-21T06:42:45;9.40;99.90
1049;DHT22;513;51.444;7.196;2023-03-21T06:45:12;9.40;99.90
1049;DHT22;513;51.444;7.196;2023-03-21T06:47:40;9.60;99.90
1049;DHT22;513;51.444;7.196;2023-03-21T06:50:07;9.60;99.90
1049;DHT22;513;51.444;7.196;2023-03-21T06:52:35;9.70;99.90
1049;DHT22;513;51.444;7.196;2023-03-21T06:55:02;9.50;99.90
1049;DHT22;513;51.444;7.196;2023-03-21T06:57:28;9.50;99.90
1049;DHT22;513;51.444;7.196;2023-03-21T06:59:55;9.50;99.90
1049;DHT22;513;51.444;7.196;2023-03-21T07:02:22;9.30;99.90
1049;DHT22;513;51.444;7.196;2023-03-21T07:04:50;9.50;99.90
1049;DHT22;513;51.444;7.196;2023-03-21T07:07:16;9.50;99.90
1049;DHT22;513;51.444;7.196;2023-03-21T07:09:43;9.60;99.90
1049;DHT22;513;51.444;7.196;2023-03-21T07:12:10;9.60;99.90
1049;DHT22;513;51.444;7.196;2023-03-21T07:14:37;9.60;99.90
1049;DHT22;513;51.444;7.196;2023-03-21T07:17:03;9.60;99.90
1049;DHT22;513;51.444;7.196;2023-03-21T07:19:30;9.60;99.90
1049;DHT22;513;51.444;7.196;2023-03-21T07:21:58;9.50;99.90
1049;DHT22;513;51.444;7.196;2023-03-21T07:24:26;9.50;99.90
1049;DHT22;513;51.444;7.196;2023-03-21T07:26:52;9.40;99.90
1049;DHT22;513;51.444;7.196;2023-03-21T07:29:20;9.40;99.90
1049;DHT22;513;51.444;7.196;2023-03-21T07:31:47;9.30;99.90
1049;DHT22;513;51.444;7.196;2023-03-21T07:34:14;9.40;99.90
1049;DHT22;513;51.444;7.196;2023-03-21T07:36:42;9.40;99.90
1049;DHT22;513;51.444;7.196;2023-03-21T07:39:10;9.40;99.90
1049;DHT22;513;51.444;7.196;2023-03-21T07:41:37;9.40;99.90
1049;DHT22;513;51.444;7.196;2023-03-21T07:44:04;9.50;99.90
1049;DHT22;513;51.444;7.196;2023-03-21T07:46:30;9.50;99.90
1049;DHT22;513;51.444;7.196;2023-03-21T07:48:57;9.50;99.90
1049;DHT22;513;51.444;7.196;2023-03-21T07:51:24;9.60;99.90
1049;DHT22;513;51.444;7.196;2023-03-21T07:53:50;9.70;99.90
1049;DHT22;513;51.444;7.196;2023-03-21T07:56:18;9.60;99.90
1049;DHT22;513;51.444;7.196;2023-03-21T07:58:46;9.70;99.90
1049;DHT22;513;51.444;7.196;2023-03-21T08:01:13;9.70;99.90
1049;DHT22;513;51.444;7.196;2023-03-21T08:03:39;9.80;99.90
1049;DHT22;513;51.444;7.196;2023-03-21T08:06:08;9.90;99.90
1049;DHT22;513;51.444;7.196;2023-03-21T08:08:35;10.00;99.90
1049;DHT22;513;51.444;7.196;2023-03-21T08:11:03;9.90;99.90
1049;DHT22;513;51.444;7.196;2023-03-21T08:13:31;10.00;99.90
1049;DHT22;513;51.444;7.196;2023-03-21T08:15:57;9.90;99.90
1049;DHT22;513;51.444;7.196;2023-03-21T08:18:24;9.80;99.90
1049;DHT22;513;51.444;7.196;2023-03-21T08:20:51;9.80;99.90
1049;DHT22;513;51.444;7.196;2023-03-21T08:23:18;9.80;99.90
1049;DHT22;513;51.444;7.196;2023-03-21T08:25:46;9.80;99.90
1049;DHT22;513;51.444;7.196;2023-03-21T08:28:16;10.00;99.90
1049;DHT22;513;51.444;7.196;2023-03-21T08:30:44;10.00;99.90
1049;DHT22;513;51.444;7.196;2023-03-21T08:33:11;10.00;99.90
1049;DHT22;513;51.444;7.196;2023-03-21T08:35:38;10.10;99.90
1049;DHT22;513;51.444;7.196;2023-03-21T08:38:05;10.10;99.90
1049;DHT22;513;51.444;7.196;2023-03-21T08:40:33;10.20;99.90
1049;DHT22;513;51.444;7.196;2023-03-21T08:42:59;10.20;99.90
1049;DHT22;513;51.444;7.196;2023-03-21T08:45:26;10.20;99.90
1049;DHT22;513;51.444;7.196;2023-03-21T08:47:54;10.30;99.90
1049;DHT22;513;51.444;7.196;2023-03-21T08:50:23;10.40;99.90
1049;DHT22;513;51.444;7.196;2023-03-21T08:52:51;10.40;99.90
1049;DHT22;513;51.444;7.196;2023-03-21T08:55:18;10.40;99.90
1049;DHT22;513;51.444;7.196;2023-03-21T08:57:45;10.50;99.90
1049;DHT22;513;51.444;7.196;2023-03-21T09:00:14;10.50;99.90
1049;DHT22;513;51.444;7.196;2023-03-21T09:02:43;10.50;99.90
1049;DHT22;513;51.444;7.196;2023-03-21T09:05:12;10.60;99.90
1049;DHT22;513;51.444;7.196;2023-03-21T09:07:40;10.60;99.90
1049;DHT22;513;51.444;7.196;2023-03-21T09:10:09;10.50;99.90
1049;DHT22;513;51.444;7.196;2023-03-21T09:12:37;10.30;99.90
1049;DHT22;513;51.444;7.196;2023-03-21T09:15:04;10.30;99.90
1049;DHT22;513;51.444;7.196;2023-03-21T09:17:31;10.20;99.90
1049;DHT22;513;51.444;7.196;2023-03-21T09:19:58;10.30;99.90
1049;DHT22;513;51.444;7.196;2023-03-21T09:22:36;10.20;99.90
1049;DHT22;513;51.444;7.196;2023-03-21T09:25:04;10.40;99.90
1049;DHT22;513;51.444;7.196;2023-03-21T09:27:32;10.40;99.90
1049;DHT22;513;51.444;7.196;2023-03-21T09:29:59;10.30;99.90
1049;DHT22;513;51.444;7.196;2023-03-21T09:32:26;10.50;99.90
1049;DHT22;513;51.444;7.196;2023-03-21T09:34:54;10.50;99.90
1049;DHT22;513;51.444;7.196;2023-03-21T09:37:21;10.30;99.90
1049;DHT22;513;51.444;7.196;2023-03-21T09:39:50;10.20;99.90
1049;DHT22;513;51.444;7.196;2023-03-21T09:42:25;10.30;99.90
1049;DHT22;513;51.444;7.196;2023-03-21T09:45:01;10.50;99.90
1049;DHT22;513;51.444;7.196;2023-03-21T09:47:36;10.40;99.90
1049;DHT22;513;51.444;7.196;2023-03-21T09:50:12;10.30;99.90
1049;DHT22;513;51.444;7.196;2023-03-21T09:52:43;10.40;99.90
1049;DHT22;513;51.444;7.196;2023-03-21T09:55:17;10.50;99.90
1049;DHT22;513;51.444;7.196;2023-03-21T09:57:46;10.60;99.90
1049;DHT22;513;51.444;7.196;2023-03-21T10:00:19;10.90;99.90
1049;DHT22;513;51.444;7.196;2023-03-21T10:02:50;10.60;99.90
1049;DHT22;513;51.444;7.196;2023-03-21T10:05:20;10.70;99.90
1049;DHT22;513;51.444;7.196;2023-03-21T10:07:52;10.80;99.90
1049;DHT22;513;51.444;7.196;2023-03-21T10:10:24;10.80;99.90
1049;DHT22;513;51.444;7.196;2023-03-21T10:12:53;10.70;99.90
1049;DHT22;513;51.444;7.196;2023-03-21T10:15:23;10.60;99.90
1049;DHT22;513;51.444;7.196;2023-03-21T10:17:55;10.70;99.90
1049;DHT22;513;51.444;7.196;2023-03-21T10:20:25;10.60;99.90
1049;DHT22;513;51.444;7.196;2023-03-21T10:22:54;10.80;99.90
1049;DHT22;513;51.444;7.196;2023-03-21T10:25:27;10.90;99.90
1049;DHT22;513;51.444;7.196;2023-03-21T10:27:56;10.90;99.90
1049;DHT22;513;51.444;7.196;2023-03-21T10:30:36;11.00;99.90
1049;DHT22;513;51.444;7.196;2023-03-21T10:33:07;11.00;99.90
1049;DHT22;513;51.444;7.196;2023-03-21T10:35:36;10.80;99.90
1049;DHT22;513;51.444;7.196;2023-03-21T10:38:04;10.90;99.90
1049;DHT22;513;51.444;7.196;2023-03-21T10:40:33;10.80;99.90
1049;DHT22;513;51.444;7.196;2023-03-21T10:43:16;10.90;99.90
1049;DHT22;513;51.444;7.196;2023-03-21T10:45:44;11.10;99.90
1049;DHT22;513;51.444;7.196;2023-03-21T10:48:11;11.00;99.90
1049;DHT22;513;51.444;7.196;2023-03-21T10:50:38;11.10;99.90
1049;DHT22;513;51.444;7.196;2023-03-21T10:53:16;11.00;99.90
1049;DHT22;513;51.444;7.196;2023-03-21T10:55:46;11.10;99.90
1049;DHT22;513;51.444;7.196;2023-03-21T10:58:14;11.10;99.90
1049;DHT22;513;51.444;7.196;2023-03-21T11:00:44;11.20;99.90
1049;DHT22;513;51.444;7.196;2023-03-21T11:03:19;11.20;99.90
1049;DHT22;513;51.444;7.196;2023-03-21T11:05:47;11.10;99.90
1049;DHT22;513;51.444;7.196;2023-03-21T11:08:16;11.30;99.90
1049;DHT22;513;51.444;7.196;2023-03-21T11:10:53;11.30;99.90
1049;DHT22;513;51.444;7.196;2023-03-21T11:13:26;11.30;99.90
1049;DHT22;513;51.444;7.196;2023-03-21T11:15:54;11.30;99.90
1049;DHT22;513;51.444;7.196;2023-03-21T11:18:24;11.50;99.90
1049;DHT22;513;51.444;7.196;2023-03-21T11:20:52;11.30;99.90
1049;DHT22;513;51.444;7.196;2023-03-21T11:23:20;11.20;99.90
1049;DHT22;513;51.444;7.196;2023-03-21T11:25:49;11.20;99.90
1049;DHT22;513;51.444;7.196;2023-03-21T11:28:19;11.20;99.90
1049;DHT22;513;51.444;7.196;2023-03-21T11:30:52;11.10;99.90
1049;DHT22;513;51.444;7.196;2023-03-21T11:33:21;11.30;99.90
1049;DHT22;513;51.444;7.196;2023-03-21T11:35:59;11.40;99.90
1049;DHT22;513;51.444;7.196;2023-03-21T11:38:29;11.70;99.90
1049;DHT22;513;51.444;7.196;2023-03-21T11:41:00;11.70;99.90
1049;DHT22;513;51.444;7.196;2023-03-21T11:43:29;11.90;99.80
1049;DHT22;513;51.444;7.196;2023-03-21T11:45:58;11.90;99.90
1049;DHT22;513;51.444;7.196;2023-03-21T11:48:25;11.90;99.90
1049;DHT22;513;51.444;7.196;2023-03-21T11:50:59;12.10;96.80
1049;DHT22;513;51.444;7.196;2023-03-21T11:53:33;12.10;84.50
1049;DHT22;513;51.444;7.196;2023-03-21T11:56:15;12.00;89.10
1049;DHT22;513;51.444;7.196;2023-03-21T11:59:02;11.90;63.40
1049;DHT22;513;51.444;7.196;2023-03-21T12:01:39;12.00;90.00
1049;DHT22;513;51.444;7.196;2023-03-21T12:04:18;12.00;61.30
1049;DHT22;513;51.444;7.196;2023-03-21T12:06:48;12.40;74.60
1049;DHT22;513;51.444;7.196;2023-03-21T12:09:35;12.60;60.70
1049;DHT22;513;51.444;7.196;2023-03-21T12:12:14;12.90;16.90
1049;DHT22;513;51.444;7.196;2023-03-21T12:14:56;12.80;2.70
1049;DHT22;513;51.444;7.196;2023-03-21T12:17:32;12.80;1.00
1049;DHT22;513;51.444;7.196;2023-03-21T12:20:09;12.90;1.00
1049;DHT22;513;51.444;7.196;2023-03-21T12:22:47;12.70;1.00
1049;DHT22;513;51.444;7.196;2023-03-21T12:25:18;12.50;1.00
1049;DHT22;513;51.444;7.196;2023-03-21T12:27:54;12.50;20.60
1049;DHT22;513;51.444;7.196;2023-03-21T12:30:32;12.30;3.10
1049;DHT22;513;51.444;7.196;2023-03-21T12:33:14;12.30;7.20
1049;DHT22;513;51.444;7.196;2023-03-21T12:35:52;12.20;1.00
1049;DHT22;513;51.444;7.196;2023-03-21T12:38:23;12.10;1.00
1049;DHT22;513;51.444;7.196;2023-03-21T12:41:18;12.00;1.00
1049;DHT22;513;51.444;7.196;2023-03-21T12:43:51;12.20;6.50
1049;DHT22;513;51.444;7.196;2023-03-21T12:46:24;12.40;1.00
1049;DHT22;513;51.444;7.196;2023-03-21T12:48:56;11.80;1.00
1049;DHT22;513;51.444;7.196;2023-03-21T12:51:28;12.30;1.00
1049;DHT22;513;51.444;7.196;2023-03-21T12:54:01;12.20;1.00
1049;DHT22;513;51.444;7.196;2023-03-21T12:56:32;11.90;1.00
1049;DHT22;513;51.444;7.196;2023-03-21T12:59:08;11.70;17.30
1049;DHT22;513;51.444;7.196;2023-03-21T13:01:38;11.60;67.40
1049;DHT22;513;51.444;7.196;2023-03-21T13:04:22;11.40;98.50
1049;DHT22;513;51.444;7.196;2023-03-21T13:06:51;11.20;99.90
1049;DHT22;513;51.444;7.196;2023-03-21T13:09:24;11.30;99.90
1049;DHT22;513;51.444;7.196;2023-03-21T13:11:56;11.20;99.90
1049;DHT22;513;51.444;7.196;2023-03-21T13:14:29;11.20;99.90
1049;DHT22;513;51.444;7.196;2023-03-21T13:17:05;11.20;99.90
1049;DHT22;513;51.444;7.196;2023-03-21T13:19:37;11.20;99.90
1049;DHT22;513;51.444;7.196;2023-03-21T13:22:10;11.40;99.90
1049;DHT22;513;51.444;7.196;2023-03-21T13:24:41;11.50;99.90
1049;DHT22;513;51.444;7.196;2023-03-21T13:27:17;11.50;99.90
1049;DHT22;513;51.444;7.196;2023-03-21T13:29:49;11.70;99.90
1049;DHT22;513;51.444;7.196;2023-03-21T13:32:22;11.60;90.90
1049;DHT22;513;51.444;7.196;2023-03-21T13:34:53;11.50;90.40
1049;DHT22;513;51.444;7.196;2023-03-21T13:37:22;11.60;94.60
1049;DHT22;513;51.444;7.196;2023-03-21T13:39:50;11.70;90.80
1049;DHT22;513;51.444;7.196;2023-03-21T13:42:22;11.60;79.20
1049;DHT22;513;51.444;7.196;2023-03-21T13:44:54;11.60;47.60
1049;DHT22;513;51.444;7.196;2023-03-21T13:47:40;11.50;56.70
1049;DHT22;513;51.444;7.196;2023-03-21T13:50:21;11.50;46.90
1049;DHT22;513;51.444;7.196;2023-03-21T13:53:10;11.50;52.80
1049;DHT22;513;51.444;7.196;2023-03-21T13:55:40;11.70;55.80
1049;DHT22;513;51.444;7.196;2023-03-21T13:58:23;11.80;42.50
1049;DHT22;513;51.444;7.196;2023-03-21T14:01:21;11.70;30.30
1049;DHT22;513;51.444;7.196;2023-03-21T14:03:57;11.70;18.60
1049;DHT22;513;51.444;7.196;2023-03-21T14:06:31;11.70;11.20
1049;DHT22;513;51.444;7.196;2023-03-21T14:08:59;11.80;9.70
1049;DHT22;513;51.444;7.196;2023-03-21T14:11:28;11.80;1.00
1049;DHT22;513;51.444;7.196;2023-03-21T14:13:58;11.90;2.50
1049;DHT22;513;51.444;7.196;2023-03-21T14:16:26;12.00;1.00
1049;DHT22;513;51.444;7.196;2023-03-21T14:18:56;12.10;1.00
1049;DHT22;513;51.444;7.196;2023-03-21T14:21:27;12.00;1.00
1049;DHT22;513;51.444;7.196;2023-03-21T14:23:58;12.00;1.00
1049;DHT22;513;51.444;7.196;2023-03-21T14:26:26;12.00;1.00
1049;DHT22;513;51.444;7.196;2023-03-21T14:28:54;12.00;1.00
1049;DHT22;513;51.444;7.196;2023-03-21T14:31:21;12.00;1.00
1049;DHT22;513;51.444;7.196;2023-03-21T14:33:51;12.10;1.00
1049;DHT22;513;51.444;7.196;2023-03-21T14:36:22;12.10;1.00
1049;DHT22;513;51.444;7.196;2023-03-21T14:39:02;12.00;1.00
1049;DHT22;513;51.444;7.196;2023-03-21T14:41:30;12.00;1.00
1049;DHT22;513;51.444;7.196;2023-03-21T14:44:07;12.10;1.00
1049;DHT22;513;51.444;7.196;2023-03-21T14:46:36;12.00;1.00
1049;DHT22;513;51.444;7.196;2023-03-21T14:49:19;12.10;1.00
1049;DHT22;513;51.444;7.196;2023-03-21T14:51:46;12.00;1.00
1049;DHT22;513;51.444;7.196;2023-03-21T14:54:15;12.30;1.00
1049;DHT22;513;51.444;7.196;2023-03-21T14:56:45;12.40;1.00
1049;DHT22;513;51.444;7.196;2023-03-21T14:59:15;12.20;1.00
1049;DHT22;513;51.444;7.196;2023-03-21T15:01:44;12.10;1.00
1049;DHT22;513;51.444;7.196;2023-03-21T15:04:14;12.00;1.00
1049;DHT22;513;51.444;7.196;2023-03-21T15:06:55;11.90;1.00
1049;DHT22;513;51.444;7.196;2023-03-21T15:09:25;11.90;1.00
1049;DHT22;513;51.444;7.196;2023-03-21T15:11:54;11.90;1.00
1049;DHT22;513;51.444;7.196;2023-03-21T15:14:25;11.90;1.00
1049;DHT22;513;51.444;7.196;2023-03-21T15:16:53;11.90;1.00
1049;DHT22;513;51.444;7.196;2023-03-21T15:19:28;11.90;1.00
1049;DHT22;513;51.444;7.196;2023-03-21T15:21:59;11.80;1.00
1049;DHT22;513;51.444;7.196;2023-03-21T15:24:30;11.80;1.00
1049;DHT22;513;51.444;7.196;2023-03-21T15:27:01;11.90;1.00
1049;DHT22;513;51.444;7.196;2023-03-21T15:29:29;11.90;1.00
1049;DHT22;513;51.444;7.196;2023-03-21T15:31:55;12.10;1.00
1049;DHT22;513;51.444;7.196;2023-03-21T15:34:27;12.10;1.00
1049;DHT22;513;51.444;7.196;2023-03-21T15:36:56;12.30;1.00
1049;DHT22;513;51.444;7.196;2023-03-21T15:39:26;12.30;1.00
1049;DHT22;513;51.444;7.196;2023-03-21T15:42:01;12.40;1.00
1049;DHT22;513;51.444;7.196;2023-03-21T15:44:29;12.40;1.00
1049;DHT22;513;51.444;7.196;2023-03-21T15:46:56;12.40;1.00
1049;DHT22;513;51.444;7.196;2023-03-21T15:49:28;12.40;1.00
1049;DHT22;513;51.444;7.196;2023-03-21T15:52:04;12.40;1.00
1049;DHT22;513;51.444;7.196;2023-03-21T15:54:33;12.30;1.00
1049;DHT22;513;51.444;7.196;2023-03-21T15:57:03;12.30;1.00
1049;DHT22;513;51.444;7.196;2023-03-21T15:59:37;12.50;1.00
1049;DHT22;513;51.444;7.196;2023-03-21T16:02:14;12.50;1.00
1049;DHT22;513;51.444;7.196;2023-03-21T16:04:56;12.50;1.00
1049;DHT22;513;51.444;7.196;2023-03-21T16:07:24;12.40;1.00
1049;DHT22;513;51.444;7.196;2023-03-21T16:09:57;12.40;1.00
1049;DHT22;513;51.444;7.196;2023-03-21T16:12:24;12.50;1.00
1049;DHT22;513;51.444;7.196;2023-03-21T16:14:51;12.50;1.00
1049;DHT22;513;51.444;7.196;2023-03-21T16:17:26;12.50;1.00
1049;DHT22;513;51.444;7.196;2023-03-21T16:19:53;12.50;1.00
1049;DHT22;513;51.444;7.196;2023-03-21T16:22:22;12.60;1.00
1049;DHT22;513;51.444;7.196;2023-03-21T16:24:49;12.40;1.00
1049;DHT22;513;51.444;7.196;2023-03-21T16:27:17;12.30;1.00
1049;DHT22;513;51.444;7.196;2023-03-21T16:29:45;12.40;1.00
1049;DHT22;513;51.444;7.196;2023-03-21T16:32:14;12.30;1.00
1049;DHT22;513;51.444;7.196;2023-03-21T16:34:41;12.20;1.00
1049;DHT22;513;51.444;7.196;2023-03-21T16:37:11;12.10;1.00
1049;DHT22;513;51.444;7.196;2023-03-21T16:39:41;12.10;1.00
1049;DHT22;513;51.444;7.196;2023-03-21T16:42:10;12.10;1.00
1049;DHT22;513;51.444;7.196;2023-03-21T16:44:37;12.00;1.00
1049;DHT22;513;51.444;7.196;2023-03-21T16:47:12;12.10;1.00
1049;DHT22;513;51.444;7.196;2023-03-21T16:49:39;12.20;1.00
1049;DHT22;513;51.444;7.196;2023-03-21T16:52:11;12.10;1.00
1049;DHT22;513;51.444;7.196;2023-03-21T16:54:38;12.10;1.00